Terminal Aerodrome Forecast
Issued by NWS

Home | Current Version | Previous Version | Text Only | Print | Product List | Glossary Off
Versions: 1 2 3 4 5 6 7 8 9 10 11 12 13 14 15

000
FTUS43 KMPX 021140
TAFRNH
TAF
KRNH 021140Z 0212/0312 23004KT P6SM SKC
     FM022000 16007KT P6SM SCT250
     FM030000 15008KT P6SM SCT060 OVC100
     FM030500 15010KT P6SM VCSH OVC040
     FM031000 14008KT 1 1/2SM -SN BR OVC012=

USA.gov is the U.S. government's official web portal to all federal, state and local government web resources and services.